sensor_id;sensor_type;location;lat;lon;timestamp;pressure;altitude;pressure_sealevel;temperature;humidity
47082;BME280;33066;49.296;14.470;2022-10-16T00:01:06;96986.76;;;18.23;45.84
47082;BME280;33066;49.296;14.470;2022-10-16T00:03:30;96986.66;;;18.16;45.84
47082;BME280;33066;49.296;14.470;2022-10-16T00:06:00;96973.97;;;18.58;45.83
47082;BME280;33066;49.296;14.470;2022-10-16T00:08:21;96974.71;;;18.27;45.94
47082;BME280;33066;49.296;14.470;2022-10-16T00:10:46;96986.23;;;18.50;45.94
47082;BME280;33066;49.296;14.470;2022-10-16T00:13:12;96996.51;;;18.51;46.19
47082;BME280;33066;49.296;14.470;2022-10-16T00:15:37;97006.34;;;18.55;46.35
47082;BME280;33066;49.296;14.470;2022-10-16T00:18:03;97003.14;;;18.30;46.27
47082;BME280;33066;49.296;14.470;2022-10-16T00:20:27;96997.49;;;18.59;46.27
47082;BME280;33066;49.296;14.470;2022-10-16T00:22:53;97003.85;;;18.38;46.32
47082;BME280;33066;49.296;14.470;2022-10-16T00:25:18;97006.48;;;18.41;46.28
47082;BME280;33066;49.296;14.470;2022-10-16T00:27:44;97007.40;;;18.42;46.27
47082;BME280;33066;49.296;14.470;2022-10-16T00:30:10;96997.78;;;18.41;46.21
47082;BME280;33066;49.296;14.470;2022-10-16T00:32:37;96986.25;;;18.40;46.22
47082;BME280;33066;49.296;14.470;2022-10-16T00:35:00;96986.41;;;18.61;46.15
47082;BME280;33066;49.296;14.470;2022-10-16T00:37:25;96982.27;;;18.52;45.99
47082;BME280;33066;49.296;14.470;2022-10-16T00:39:52;96974.62;;;18.24;46.12
47082;BME280;33066;49.296;14.470;2022-10-16T00:42:17;96980.66;;;18.25;46.11
47082;BME280;33066;49.296;14.470;2022-10-16T00:44:45;96981.49;;;18.49;46.05
47082;BME280;33066;49.296;14.470;2022-10-16T00:47:08;96990.73;;;18.23;46.12
47082;BME280;33066;49.296;14.470;2022-10-16T00:49:32;97000.78;;;18.24;45.99
47082;BME280;33066;49.296;14.470;2022-10-16T00:51:57;97006.11;;;18.49;46.00
47082;BME280;33066;49.296;14.470;2022-10-16T00:54:25;97005.90;;;18.47;46.05
47082;BME280;33066;49.296;14.470;2022-10-16T00:56:49;97006.32;;;18.26;46.25
47082;BME280;33066;49.296;14.470;2022-10-16T00:59:16;97001.37;;;18.52;46.05
47082;BME280;33066;49.296;14.470;2022-10-16T01:01:39;96993.63;;;18.31;45.92
47082;BME280;33066;49.296;14.470;2022-10-16T01:04:04;96989.03;;;18.49;46.00
47082;BME280;33066;49.296;14.470;2022-10-16T01:06:36;96988.87;;;18.50;46.26
47082;BME280;33066;49.296;14.470;2022-10-16T01:09:07;96990.81;;;18.53;46.21
47082;BME280;33066;49.296;14.470;2022-10-16T01:11:24;96998.74;;;18.03;46.15
47082;BME280;33066;49.296;14.470;2022-10-16T01:13:50;97002.87;;;18.49;46.16
47082;BME280;33066;49.296;14.470;2022-10-16T01:16:15;97003.60;;;18.24;46.40
47082;BME280;33066;49.296;14.470;2022-10-16T01:18:41;97001.69;;;18.26;46.61
47082;BME280;33066;49.296;14.470;2022-10-16T01:21:04;97001.51;;;18.30;46.58
47082;BME280;33066;49.296;14.470;2022-10-16T01:23:37;96997.36;;;18.58;46.56
47082;BME280;33066;49.296;14.470;2022-10-16T01:26:13;96996.76;;;18.58;46.63
47082;BME280;33066;49.296;14.470;2022-10-16T01:28:24;96995.29;;;18.28;46.79
47082;BME280;33066;49.296;14.470;2022-10-16T01:30:45;96995.84;;;18.31;46.88
47082;BME280;33066;49.296;14.470;2022-10-16T01:33:14;96997.34;;;18.35;46.87
47082;BME280;33066;49.296;14.470;2022-10-16T01:35:37;96993.40;;;18.41;46.74
47082;BME280;33066;49.296;14.470;2022-10-16T01:38:03;96997.87;;;18.64;46.47
47082;BME280;33066;49.296;14.470;2022-10-16T01:40:27;97004.24;;;18.65;46.61
47082;BME280;33066;49.296;14.470;2022-10-16T01:42:56;97005.13;;;18.44;46.67
47082;BME280;33066;49.296;14.470;2022-10-16T01:45:19;97004.55;;;18.71;46.62
47082;BME280;33066;49.296;14.470;2022-10-16T01:47:43;97009.39;;;18.73;46.60
47082;BME280;33066;49.296;14.470;2022-10-16T01:50:09;97009.66;;;18.49;46.55
47082;BME280;33066;49.296;14.470;2022-10-16T01:52:38;97011.65;;;18.51;46.64
47082;BME280;33066;49.296;14.470;2022-10-16T01:55:02;97008.50;;;18.54;46.59
47082;BME280;33066;49.296;14.470;2022-10-16T01:57:26;97012.51;;;18.57;46.59
47082;BME280;33066;49.296;14.470;2022-10-16T01:59:54;97012.69;;;18.60;46.56
47082;BME280;33066;49.296;14.470;2022-10-16T02:02:17;97013.43;;;18.63;46.54
47082;BME280;33066;49.296;14.470;2022-10-16T02:04:46;97014.44;;;18.84;46.51
47082;BME280;33066;49.296;14.470;2022-10-16T02:07:07;97015.62;;;18.39;46.48
47082;BME280;33066;49.296;14.470;2022-10-16T02:09:33;97020.92;;;18.56;46.47
47082;BME280;33066;49.296;14.470;2022-10-16T02:11:59;97018.32;;;18.72;46.49
47082;BME280;33066;49.296;14.470;2022-10-16T02:14:23;97016.44;;;18.49;46.39
47082;BME280;33066;49.296;14.470;2022-10-16T02:16:47;97020.73;;;18.68;46.30
47082;BME280;33066;49.296;14.470;2022-10-16T02:19:15;97015.04;;;18.42;46.40
47082;BME280;33066;49.296;14.470;2022-10-16T02:21:43;97013.73;;;18.68;46.45
47082;BME280;33066;49.296;14.470;2022-10-16T02:24:11;97014.62;;;18.66;46.50
47082;BME280;33066;49.296;14.470;2022-10-16T02:26:35;97019.70;;;18.69;46.39
47082;BME280;33066;49.296;14.470;2022-10-16T02:28:57;97020.81;;;18.70;46.36
47082;BME280;33066;49.296;14.470;2022-10-16T02:31:26;97019.57;;;18.72;46.49
47082;BME280;33066;49.296;14.470;2022-10-16T02:33:46;97019.23;;;18.50;46.53
47082;BME280;33066;49.296;14.470;2022-10-16T02:36:11;97020.27;;;18.50;46.29
47082;BME280;33066;49.296;14.470;2022-10-16T02:38:40;97029.62;;;18.71;46.10
47082;BME280;33066;49.296;14.470;2022-10-16T02:41:02;97031.14;;;18.65;46.07
47082;BME280;33066;49.296;14.470;2022-10-16T02:43:28;97032.93;;;17.77;45.84
47082;BME280;33066;49.296;14.470;2022-10-16T02:45:53;97036.56;;;18.99;45.26
47082;BME280;33066;49.296;14.470;2022-10-16T02:48:18;97042.03;;;18.76;45.65
47082;BME280;33066;49.296;14.470;2022-10-16T02:50:43;97042.71;;;18.63;46.02
47082;BME280;33066;49.296;14.470;2022-10-16T02:53:09;97040.16;;;18.53;46.28
47082;BME280;33066;49.296;14.470;2022-10-16T02:55:35;97037.36;;;18.77;46.32
47082;BME280;33066;49.296;14.470;2022-10-16T02:57:59;97039.40;;;18.50;46.31
47082;BME280;33066;49.296;14.470;2022-10-16T03:00:24;97039.26;;;18.64;46.21
47082;BME280;33066;49.296;14.470;2022-10-16T03:02:50;97034.05;;;18.53;46.12
47082;BME280;33066;49.296;14.470;2022-10-16T03:05:15;97037.41;;;18.21;46.01
47082;BME280;33066;49.296;14.470;2022-10-16T03:07:41;97042.84;;;18.25;46.52
47082;BME280;33066;49.296;14.470;2022-10-16T03:13:00;97050.10;;;18.84;46.72
47082;BME280;33066;49.296;14.470;2022-10-16T03:15:25;97047.61;;;18.56;46.66
47082;BME280;33066;49.296;14.470;2022-10-16T03:17:51;97048.61;;;18.53;46.82
47082;BME280;33066;49.296;14.470;2022-10-16T03:20:17;97046.22;;;18.49;46.88
47082;BME280;33066;49.296;14.470;2022-10-16T03:22:41;97047.83;;;18.75;46.68
47082;BME280;33066;49.296;14.470;2022-10-16T03:25:07;97042.12;;;18.76;46.67
47082;BME280;33066;49.296;14.470;2022-10-16T03:27:32;97040.81;;;18.66;46.55
47082;BME280;33066;49.296;14.470;2022-10-16T03:29:57;97039.86;;;18.35;46.07
47082;BME280;33066;49.296;14.470;2022-10-16T03:32:23;97039.93;;;18.29;45.84
47082;BME280;33066;49.296;14.470;2022-10-16T03:34:48;97041.58;;;18.48;45.89
47082;BME280;33066;49.296;14.470;2022-10-16T03:37:14;97040.48;;;18.44;45.98
47082;BME280;33066;49.296;14.470;2022-10-16T03:39:39;97040.55;;;18.45;46.28
47082;BME280;33066;49.296;14.470;2022-10-16T03:42:06;97040.33;;;18.46;46.43
47082;BME280;33066;49.296;14.470;2022-10-16T03:44:31;97039.55;;;18.52;46.35
47082;BME280;33066;49.296;14.470;2022-10-16T03:46:56;97039.82;;;18.29;46.50
47082;BME280;33066;49.296;14.470;2022-10-16T03:49:22;97046.38;;;18.35;47.09
47082;BME280;33066;49.296;14.470;2022-10-16T03:51:47;97052.68;;;18.58;47.07
47082;BME280;33066;49.296;14.470;2022-10-16T03:54:12;97061.79;;;18.36;46.82
47082;BME280;33066;49.296;14.470;2022-10-16T03:56:38;97068.66;;;18.33;46.47
47082;BME280;33066;49.296;14.470;2022-10-16T03:59:03;97068.81;;;18.52;46.14
47082;BME280;33066;49.296;14.470;2022-10-16T04:01:28;97072.09;;;18.48;46.25
47082;BME280;33066;49.296;14.470;2022-10-16T04:03:54;97072.58;;;18.47;46.61
47082;BME280;33066;49.296;14.470;2022-10-16T04:06:20;97069.81;;;18.50;46.69
47082;BME280;33066;49.296;14.470;2022-10-16T04:08:45;97069.25;;;18.19;46.60
47082;BME280;33066;49.296;14.470;2022-10-16T04:11:11;97071.34;;;18.52;46.42
47082;BME280;33066;49.296;14.470;2022-10-16T04:13:37;97071.92;;;18.57;46.40
47082;BME280;33066;49.296;14.470;2022-10-16T04:16:02;97068.29;;;18.60;46.41
47082;BME280;33066;49.296;14.470;2022-10-16T04:18:29;97061.31;;;18.62;46.35
47082;BME280;33066;49.296;14.470;2022-10-16T04:20:53;97061.38;;;18.58;46.12
47082;BME280;33066;49.296;14.470;2022-10-16T04:23:19;97065.12;;;18.50;46.13
47082;BME280;33066;49.296;14.470;2022-10-16T04:25:45;97075.86;;;18.41;46.18
47082;BME280;33066;49.296;14.470;2022-10-16T04:28:10;97078.27;;;18.12;46.41
47082;BME280;33066;49.296;14.470;2022-10-16T04:30:38;97076.22;;;18.41;46.49
47082;BME280;33066;49.296;14.470;2022-10-16T04:33:01;97074.97;;;18.44;46.52
47082;BME280;33066;49.296;14.470;2022-10-16T04:35:26;97074.23;;;18.50;46.57
47082;BME280;33066;49.296;14.470;2022-10-16T04:37:51;97073.41;;;18.30;46.56
47082;BME280;33066;49.296;14.470;2022-10-16T04:40:17;97076.57;;;18.35;46.41
47082;BME280;33066;49.296;14.470;2022-10-16T04:42:42;97081.20;;;18.35;46.34
47082;BME280;33066;49.296;14.470;2022-10-16T04:45:08;97081.66;;;18.32;46.44
47082;BME280;33066;49.296;14.470;2022-10-16T04:47:33;97085.60;;;18.56;46.44
47082;BME280;33066;49.296;14.470;2022-10-16T04:49:58;97083.43;;;18.29;46.40
47082;BME280;33066;49.296;14.470;2022-10-16T04:52:23;97082.38;;;18.51;46.57
47082;BME280;33066;49.296;14.470;2022-10-16T04:54:50;97090.57;;;18.28;46.62
47082;BME280;33066;49.296;14.470;2022-10-16T04:57:13;97098.30;;;18.53;46.58
47082;BME280;33066;49.296;14.470;2022-10-16T04:59:39;97091.26;;;18.53;46.61
47082;BME280;33066;49.296;14.470;2022-10-16T05:02:04;97088.78;;;18.31;46.61
47082;BME280;33066;49.296;14.470;2022-10-16T05:04:30;97091.71;;;18.32;46.57
47082;BME280;33066;49.296;14.470;2022-10-16T05:06:55;97097.06;;;18.57;46.64
47082;BME280;33066;49.296;14.470;2022-10-16T05:09:21;97098.61;;;18.33;46.66
47082;BME280;33066;49.296;14.470;2022-10-16T05:11:46;97100.45;;;18.60;46.69
47082;BME280;33066;49.296;14.470;2022-10-16T05:14:12;97099.81;;;18.39;46.63
47082;BME280;33066;49.296;14.470;2022-10-16T05:16:38;97102.39;;;18.65;46.59
47082;BME280;33066;49.296;14.470;2022-10-16T05:19:03;97105.70;;;18.44;46.60
47082;BME280;33066;49.296;14.470;2022-10-16T05:21:29;97104.02;;;18.68;46.73
47082;BME280;33066;49.296;14.470;2022-10-16T05:23:55;97103.51;;;18.44;46.59
47082;BME280;33066;49.296;14.470;2022-10-16T05:26:19;97105.47;;;18.66;46.53
47082;BME280;33066;49.296;14.470;2022-10-16T05:28:45;97110.50;;;18.43;46.56
47082;BME280;33066;49.296;14.470;2022-10-16T05:31:11;97111.92;;;18.44;46.40
47082;BME280;33066;49.296;14.470;2022-10-16T05:33:36;97108.63;;;18.68;46.48
47082;BME280;33066;49.296;14.470;2022-10-16T05:36:01;97115.49;;;18.44;46.45
47082;BME280;33066;49.296;14.470;2022-10-16T05:38:26;97124.04;;;18.42;46.47
47082;BME280;33066;49.296;14.470;2022-10-16T05:40:52;97135.21;;;18.46;46.48
47082;BME280;33066;49.296;14.470;2022-10-16T05:43:17;97134.26;;;18.45;46.44
47082;BME280;33066;49.296;14.470;2022-10-16T05:45:42;97134.17;;;18.71;46.46
47082;BME280;33066;49.296;14.470;2022-10-16T05:48:08;97140.56;;;18.72;46.56
47082;BME280;33066;49.296;14.470;2022-10-16T05:50:33;97142.85;;;18.48;46.46
47082;BME280;33066;49.296;14.470;2022-10-16T05:52:58;97140.62;;;18.46;46.53
47082;BME280;33066;49.296;14.470;2022-10-16T05:55:24;97145.73;;;18.84;46.07
47082;BME280;33066;49.296;14.470;2022-10-16T05:57:49;97150.77;;;18.80;46.32
47082;BME280;33066;49.296;14.470;2022-10-16T06:00:15;97153.42;;;18.69;46.31
47082;BME280;33066;49.296;14.470;2022-10-16T06:02:40;97161.38;;;18.87;46.34
47082;BME280;33066;49.296;14.470;2022-10-16T06:05:06;97169.96;;;18.55;46.42
47082;BME280;33066;49.296;14.470;2022-10-16T06:07:34;97170.16;;;18.50;46.48
47082;BME280;33066;49.296;14.470;2022-10-16T06:09:57;97171.33;;;18.73;46.48
47082;BME280;33066;49.296;14.470;2022-10-16T06:12:22;97175.08;;;18.71;46.32
47082;BME280;33066;49.296;14.470;2022-10-16T06:14:48;97180.03;;;18.62;46.38
47082;BME280;33066;49.296;14.470;2022-10-16T06:17:13;97178.58;;;18.60;46.46
47082;BME280;33066;49.296;14.470;2022-10-16T06:19:39;97178.37;;;18.41;46.43
47082;BME280;33066;49.296;14.470;2022-10-16T06:22:04;97174.75;;;18.70;46.36
47082;BME280;33066;49.296;14.470;2022-10-16T06:24:30;97178.70;;;18.72;46.34
47082;BME280;33066;49.296;14.470;2022-10-16T06:26:55;97181.73;;;18.71;46.36
47082;BME280;33066;49.296;14.470;2022-10-16T06:29:21;97186.98;;;18.72;46.45
47082;BME280;33066;49.296;14.470;2022-10-16T06:31:48;97194.55;;;18.72;46.48
47082;BME280;33066;49.296;14.470;2022-10-16T06:34:12;97195.42;;;18.48;46.50
47082;BME280;33066;49.296;14.470;2022-10-16T06:36:39;97201.57;;;18.77;46.47
47082;BME280;33066;49.296;14.470;2022-10-16T06:39:04;97208.59;;;18.57;46.35
47082;BME280;33066;49.296;14.470;2022-10-16T06:41:29;97215.47;;;18.28;46.32
47082;BME280;33066;49.296;14.470;2022-10-16T06:43:54;97220.55;;;18.65;46.33
47082;BME280;33066;49.296;14.470;2022-10-16T06:46:23;97223.29;;;18.71;46.30
47082;BME280;33066;49.296;14.470;2022-10-16T06:48:46;97224.43;;;18.74;46.22
47082;BME280;33066;49.296;14.470;2022-10-16T06:51:12;97225.92;;;18.57;46.20
47082;BME280;33066;49.296;14.470;2022-10-16T06:53:38;97223.86;;;18.62;46.14
47082;BME280;33066;49.296;14.470;2022-10-16T06:56:08;97223.03;;;18.90;46.18
47082;BME280;33066;49.296;14.470;2022-10-16T06:58:28;97225.58;;;18.77;46.08
47082;BME280;33066;49.296;14.470;2022-10-16T07:00:57;97231.13;;;18.80;46.10
47082;BME280;33066;49.296;14.470;2022-10-16T07:03:17;97227.39;;;18.83;46.10
47082;BME280;33066;49.296;14.470;2022-10-16T07:05:43;97229.62;;;18.83;46.21
47082;BME280;33066;49.296;14.470;2022-10-16T07:08:09;97233.95;;;18.81;46.25
47082;BME280;33066;49.296;14.470;2022-10-16T07:10:36;97238.71;;;19.03;46.28
47082;BME280;33066;49.296;14.470;2022-10-16T07:13:00;97245.17;;;19.06;46.25
47082;BME280;33066;49.296;14.470;2022-10-16T07:15:26;97249.96;;;18.63;46.26
47082;BME280;33066;49.296;14.470;2022-10-16T07:17:52;97251.18;;;18.92;46.16
47082;BME280;33066;49.296;14.470;2022-10-16T07:20:19;97249.68;;;18.95;46.04
47082;BME280;33066;49.296;14.470;2022-10-16T07:22:42;97253.76;;;19.00;45.98
47082;BME280;33066;49.296;14.470;2022-10-16T07:25:07;97258.45;;;19.06;45.85
47082;BME280;33066;49.296;14.470;2022-10-16T07:27:33;97262.70;;;19.13;45.70
47082;BME280;33066;49.296;14.470;2022-10-16T07:29:58;97261.98;;;19.20;45.66
47082;BME280;33066;49.296;14.470;2022-10-16T07:32:23;97271.19;;;19.31;45.73
47082;BME280;33066;49.296;14.470;2022-10-16T07:34:48;97272.62;;;19.35;45.60
47082;BME280;33066;49.296;14.470;2022-10-16T07:37:15;97271.61;;;19.36;45.74
47082;BME280;33066;49.296;14.470;2022-10-16T07:39:40;97259.69;;;19.23;45.83
47082;BME280;33066;49.296;14.470;2022-10-16T07:42:04;97258.48;;;19.30;45.87
47082;BME280;33066;49.296;14.470;2022-10-16T07:44:30;97261.33;;;19.68;45.90
47082;BME280;33066;49.296;14.470;2022-10-16T07:46:55;97265.12;;;19.54;45.90
47082;BME280;33066;49.296;14.470;2022-10-16T07:49:21;97268.49;;;19.49;45.87
47082;BME280;33066;49.296;14.470;2022-10-16T07:51:46;97267.34;;;19.83;45.89
47082;BME280;33066;49.296;14.470;2022-10-16T07:54:16;97264.45;;;19.84;46.03
47082;BME280;33066;49.296;14.470;2022-10-16T07:56:38;97263.57;;;19.90;46.12
47082;BME280;33066;49.296;14.470;2022-10-16T07:59:03;97265.10;;;19.99;46.19
47082;BME280;33066;49.296;14.470;2022-10-16T08:01:28;97259.21;;;20.10;45.96
47082;BME280;33066;49.296;14.470;2022-10-16T08:03:53;97259.36;;;19.90;45.96
47082;BME280;33066;49.296;14.470;2022-10-16T08:06:20;97258.37;;;19.98;45.85
47082;BME280;33066;49.296;14.470;2022-10-16T08:08:46;97252.82;;;19.87;45.69
47082;BME280;33066;49.296;14.470;2022-10-16T08:11:10;97259.19;;;20.50;45.66
47082;BME280;33066;49.296;14.470;2022-10-16T08:13:36;97256.90;;;20.10;45.68
47082;BME280;33066;49.296;14.470;2022-10-16T08:16:01;97253.11;;;20.08;45.71
47082;BME280;33066;49.296;14.470;2022-10-16T08:18:26;97254.64;;;20.10;45.68
47082;BME280;33066;49.296;14.470;2022-10-16T08:20:57;97255.79;;;20.40;45.62
47082;BME280;33066;49.296;14.470;2022-10-16T08:23:17;97256.80;;;20.16;45.70
47082;BME280;33066;49.296;14.470;2022-10-16T08:25:42;97262.04;;;20.20;45.83
47082;BME280;33066;49.296;14.470;2022-10-16T08:28:10;97262.57;;;20.21;45.94
47082;BME280;33066;49.296;14.470;2022-10-16T08:30:34;97266.43;;;20.26;45.94
47082;BME280;33066;49.296;14.470;2022-10-16T08:32:59;97272.54;;;20.49;46.04
47082;BME280;33066;49.296;14.470;2022-10-16T08:35:23;97279.10;;;20.38;46.06
47082;BME280;33066;49.296;14.470;2022-10-16T08:37:48;97285.37;;;20.52;46.01
47082;BME280;33066;49.296;14.470;2022-10-16T08:40:18;97282.98;;;20.71;45.80
47082;BME280;33066;49.296;14.470;2022-10-16T08:42:52;97277.48;;;20.83;45.79
47082;BME280;33066;49.296;14.470;2022-10-16T08:45:18;97287.49;;;20.65;45.72
47082;BME280;33066;49.296;14.470;2022-10-16T08:47:44;97290.35;;;21.05;45.48
47082;BME280;33066;49.296;14.470;2022-10-16T08:49:57;97290.01;;;21.05;45.44
47082;BME280;33066;49.296;14.470;2022-10-16T08:52:29;97293.91;;;21.12;45.35
47082;BME280;33066;49.296;14.470;2022-10-16T08:54:51;97298.57;;;20.83;45.38
47082;BME280;33066;49.296;14.470;2022-10-16T08:57:15;97305.33;;;21.07;45.48
47082;BME280;33066;49.296;14.470;2022-10-16T08:59:38;97304.60;;;21.11;45.47
47082;BME280;33066;49.296;14.470;2022-10-16T09:04:43;97300.04;;;20.96;45.35
47082;BME280;33066;49.296;14.470;2022-10-16T09:06:57;97297.21;;;21.35;45.34
47082;BME280;33066;49.296;14.470;2022-10-16T09:09:35;97296.36;;;21.27;45.25
47082;BME280;33066;49.296;14.470;2022-10-16T09:11:48;97295.51;;;21.12;45.05
47082;BME280;33066;49.296;14.470;2022-10-16T09:16:40;97300.96;;;21.70;44.88
47082;BME280;33066;49.296;14.470;2022-10-16T09:19:09;97302.14;;;21.82;44.53
47082;BME280;33066;49.296;14.470;2022-10-16T09:21:30;97301.60;;;21.70;44.45
47082;BME280;33066;49.296;14.470;2022-10-16T09:23:54;97302.25;;;21.36;44.53
47082;BME280;33066;49.296;14.470;2022-10-16T09:26:19;97302.42;;;21.94;44.77
47082;BME280;33066;49.296;14.470;2022-10-16T09:28:44;97304.62;;;21.97;44.39
47082;BME280;33066;49.296;14.470;2022-10-16T09:31:15;97304.75;;;22.03;44.47
47082;BME280;33066;49.296;14.470;2022-10-16T09:33:37;97303.47;;;22.18;44.50
47082;BME280;33066;49.296;14.470;2022-10-16T09:36:05;97304.16;;;22.14;44.31
47082;BME280;33066;49.296;14.470;2022-10-16T09:38:27;97307.92;;;22.46;44.17
47082;BME280;33066;49.296;14.470;2022-10-16T09:40:52;97304.66;;;22.61;43.82
47082;BME280;33066;49.296;14.470;2022-10-16T09:43:23;97303.90;;;22.46;43.56
47082;BME280;33066;49.296;14.470;2022-10-16T09:45:43;97311.29;;;22.71;43.71
47082;BME280;33066;49.296;14.470;2022-10-16T09:48:11;97319.57;;;22.44;43.99
47082;BME280;33066;49.296;14.470;2022-10-16T09:50:33;97320.57;;;22.43;44.26
47082;BME280;33066;49.296;14.470;2022-10-16T09:53:05;97320.13;;;22.32;43.97
47082;BME280;33066;49.296;14.470;2022-10-16T09:55:24;97319.61;;;22.13;44.49
47082;BME280;33066;49.296;14.470;2022-10-16T09:57:55;97319.62;;;22.43;43.65
47082;BME280;33066;49.296;14.470;2022-10-16T10:00:16;97323.32;;;22.79;43.48
47082;BME280;33066;49.296;14.470;2022-10-16T10:02:41;97323.31;;;22.54;43.50
47082;BME280;33066;49.296;14.470;2022-10-16T10:05:06;97318.21;;;22.94;43.65
47082;BME280;33066;49.296;14.470;2022-10-16T10:07:35;97319.61;;;23.13;43.41
47082;BME280;33066;49.296;14.470;2022-10-16T10:09:56;97323.95;;;22.77;43.14
47082;BME280;33066;49.296;14.470;2022-10-16T10:12:21;97328.78;;;23.18;43.01
47082;BME280;33066;49.296;14.470;2022-10-16T10:14:47;97330.02;;;23.24;42.74
47082;BME280;33066;49.296;14.470;2022-10-16T10:17:13;97332.32;;;23.62;42.63
47082;BME280;33066;49.296;14.470;2022-10-16T10:19:39;97331.13;;;23.81;42.24
47082;BME280;33066;49.296;14.470;2022-10-16T10:24:25;97325.31;;;24.31;40.85
47082;BME280;33066;49.296;14.470;2022-10-16T10:26:56;97321.44;;;24.37;41.35
47082;BME280;33066;49.296;14.470;2022-10-16T10:29:27;97318.20;;;24.30;41.48
47082;BME280;33066;49.296;14.470;2022-10-16T10:31:47;97313.46;;;24.97;40.43
47082;BME280;33066;49.296;14.470;2022-10-16T10:34:21;97311.42;;;24.96;39.13
47082;BME280;33066;49.296;14.470;2022-10-16T10:36:35;97308.41;;;24.81;39.89
47082;BME280;33066;49.296;14.470;2022-10-16T10:39:00;97306.21;;;24.50;40.27
47082;BME280;33066;49.296;14.470;2022-10-16T10:43:58;97305.76;;;24.54;40.88
47082;BME280;33066;49.296;14.470;2022-10-16T10:46:18;97300.81;;;24.24;41.02
47082;BME280;33066;49.296;14.470;2022-10-16T10:48:57;97295.37;;;24.02;40.66
47082;BME280;33066;49.296;14.470;2022-10-16T10:51:07;97295.24;;;24.90;40.07
47082;BME280;33066;49.296;14.470;2022-10-16T10:53:40;97294.93;;;24.85;39.66
47082;BME280;33066;49.296;14.470;2022-10-16T10:56:00;97293.09;;;24.53;39.70
47082;BME280;33066;49.296;14.470;2022-10-16T11:00:51;97289.98;;;25.79;38.72
47082;BME280;33066;49.296;14.470;2022-10-16T11:03:19;97287.30;;;26.42;37.41
47082;BME280;33066;49.296;14.470;2022-10-16T11:05:41;97291.27;;;27.18;36.22
47082;BME280;33066;49.296;14.470;2022-10-16T11:08:04;97294.72;;;27.75;34.72
47082;BME280;33066;49.296;14.470;2022-10-16T11:10:30;97294.65;;;28.24;33.64
47082;BME280;33066;49.296;14.470;2022-10-16T11:13:10;97289.46;;;28.60;33.02
47082;BME280;33066;49.296;14.470;2022-10-16T11:15:28;97284.43;;;29.27;32.40
47082;BME280;33066;49.296;14.470;2022-10-16T11:17:48;97285.29;;;29.35;32.12
47082;BME280;33066;49.296;14.470;2022-10-16T11:20:16;97284.20;;;29.75;30.80
47082;BME280;33066;49.296;14.470;2022-10-16T11:22:40;97279.65;;;29.93;30.80
47082;BME280;33066;49.296;14.470;2022-10-16T11:25:12;97275.20;;;30.35;30.19
47082;BME280;33066;49.296;14.470;2022-10-16T11:27:35;97277.12;;;30.34;29.28
47082;BME280;33066;49.296;14.470;2022-10-16T11:30:00;97276.50;;;30.72;29.52
47082;BME280;33066;49.296;14.470;2022-10-16T11:32:25;97273.15;;;31.08;29.36
47082;BME280;33066;49.296;14.470;2022-10-16T11:34:50;97273.95;;;31.53;29.19
47082;BME280;33066;49.296;14.470;2022-10-16T11:37:12;97271.96;;;31.36;28.97
47082;BME280;33066;49.296;14.470;2022-10-16T11:39:34;97269.87;;;31.40;28.55
47082;BME280;33066;49.296;14.470;2022-10-16T11:42:09;97265.13;;;31.76;28.48
47082;BME280;33066;49.296;14.470;2022-10-16T11:44:41;97270.04;;;32.04;28.36
47082;BME280;33066;49.296;14.470;2022-10-16T11:46:57;97270.81;;;32.19;28.08
47082;BME280;33066;49.296;14.470;2022-10-16T11:49:20;97270.42;;;32.59;27.54
47082;BME280;33066;49.296;14.470;2022-10-16T11:51:48;97275.30;;;33.00;27.53
47082;BME280;33066;49.296;14.470;2022-10-16T11:54:16;97280.32;;;33.41;27.13
47082;BME280;33066;49.296;14.470;2022-10-16T11:56:38;97279.03;;;33.47;26.64
47082;BME280;33066;49.296;14.470;2022-10-16T11:59:04;97279.27;;;33.38;26.52
47082;BME280;33066;49.296;14.470;2022-10-16T12:01:33;97275.67;;;34.03;26.09
47082;BME280;33066;49.296;14.470;2022-10-16T12:03:59;97273.39;;;34.45;25.62
47082;BME280;33066;49.296;14.470;2022-10-16T12:06:24;97272.05;;;34.30;24.98
47082;BME280;33066;49.296;14.470;2022-10-16T12:08:43;97265.70;;;34.89;24.98
47082;BME280;33066;49.296;14.470;2022-10-16T12:11:09;97264.43;;;34.95;24.63
47082;BME280;33066;49.296;14.470;2022-10-16T12:13:35;97262.53;;;35.07;24.30
47082;BME280;33066;49.296;14.470;2022-10-16T12:16:18;97255.92;;;35.30;24.36
47082;BME280;33066;49.296;14.470;2022-10-16T12:18:25;97249.87;;;35.37;24.07
47082;BME280;33066;49.296;14.470;2022-10-16T12:20:54;97251.16;;;35.76;24.06
47082;BME280;33066;49.296;14.470;2022-10-16T12:23:22;97253.84;;;35.70;23.91
47082;BME280;33066;49.296;14.470;2022-10-16T12:25:41;97252.51;;;36.11;23.30
47082;BME280;33066;49.296;14.470;2022-10-16T12:28:06;97247.90;;;36.28;23.00
47082;BME280;33066;49.296;14.470;2022-10-16T12:30:31;97247.94;;;36.62;22.76
47082;BME280;33066;49.296;14.470;2022-10-16T12:32:57;97244.01;;;36.85;22.68
47082;BME280;33066;49.296;14.470;2022-10-16T12:35:23;97248.11;;;36.56;22.76
47082;BME280;33066;49.296;14.470;2022-10-16T12:37:48;97252.38;;;35.21;23.86
47082;BME280;33066;49.296;14.470;2022-10-16T12:40:14;97256.51;;;34.94;24.24
47082;BME280;33066;49.296;14.470;2022-10-16T12:42:40;97263.73;;;34.00;25.34
47082;BME280;33066;49.296;14.470;2022-10-16T12:47:38;97257.44;;;33.11;26.32
47082;BME280;33066;49.296;14.470;2022-10-16T12:49:54;97259.73;;;33.65;26.17
47082;BME280;33066;49.296;14.470;2022-10-16T12:52:28;97256.18;;;34.39;25.43
47082;BME280;33066;49.296;14.470;2022-10-16T12:54:45;97250.36;;;34.89;24.56
47082;BME280;33066;49.296;14.470;2022-10-16T12:57:24;97244.34;;;35.41;24.17